Time;durP1;ratioP1;P1;durP2;ratioP2;P2;SDS_P1;SDS_P2;PMS_P1;PMS_P2;Temp;Humidity;BMP_temperature;BMP_pressure;BME280_temperature;BME280_humidity;BME280_pressure;Samples;Min_cycle;Max_cycle;Signal;HPM_P1;HPM_P2
2022/08/12 00:45:08;;;;;;;1.42;0.88;;;;;;;17.87;56.13;98899.53;4484178;32;20438;-72
2022/08/12 00:47:36;;;;;;;1.20;0.90;;;;;;;17.86;56.27;98898.69;4485294;31;20479;-72
2022/08/12 00:50:05;;;;;;;0.90;0.80;;;;;;;17.85;56.33;98897.06;4484181;32;20107;-72
2022/08/12 00:52:34;;;;;;;0.73;0.70;;;;;;;17.79;56.49;98903.09;4485135;31;20089;-72
2022/08/12 00:55:04;;;;;;;1.45;0.95;;;;;;;17.81;56.60;98895.75;4485291;32;20104;-72
2022/08/12 00:57:35;;;;;;;1.60;1.05;;;;;;;17.81;56.51;98901.06;4485255;32;20093;-72
2022/08/12 01:00:09;;;;;;;1.60;1.12;;;;;;;17.82;56.44;98897.41;4485398;31;20080;-72
2022/08/12 01:02:39;;;;;;;2.58;0.80;;;;;;;17.84;56.46;98895.41;4485134;32;20088;-72
2022/08/12 01:13:34;;;;;;;3.35;1.05;;;;;;;17.72;57.02;98908.25;4485161;31;20145;-72
2022/08/12 01:16:04;;;;;;;1.33;0.90;;;;;;;17.63;57.25;98906.69;4485018;31;20107;-71
2022/08/12 01:18:33;;;;;;;2.03;0.98;;;;;;;17.66;57.20;98913.47;4485228;31;20578;-72
2022/08/12 01:21:19;;;;;;;1.25;1.00;;;;;;;17.66;57.20;98914.28;4485049;31;20157;-72
2022/08/12 01:24:16;;;;;;;1.00;0.90;;;;;;;17.58;57.54;98918.81;4484846;31;20088;-71
2022/08/12 01:26:59;;;;;;;2.53;0.85;;;;;;;17.51;57.77;98922.19;4484759;31;20088;-72
2022/08/12 01:29:28;;;;;;;1.02;0.90;;;;;;;17.48;58.08;98921.72;4485067;31;20100;-72
2022/08/12 01:32:07;;;;;;;1.83;1.00;;;;;;;17.42;58.25;98917.16;4485066;31;20096;-71
2022/08/12 01:34:37;;;;;;;1.60;0.98;;;;;;;17.37;58.57;98905.25;4484838;31;20097;-72
2022/08/12 01:37:07;;;;;;;1.15;1.00;;;;;;;17.29;58.87;98905.31;4484738;31;20111;-72
2022/08/12 01:39:49;;;;;;;2.15;0.90;;;;;;;17.29;58.96;98902.69;4485191;31;20096;-72
2022/08/12 01:42:49;;;;;;;1.15;0.90;;;;;;;17.28;59.12;98905.50;4484907;31;20154;-72
2022/08/12 01:45:23;;;;;;;2.92;1.20;;;;;;;17.23;59.32;98902.53;4484937;31;20084;-71
2022/08/12 01:48:04;;;;;;;6.75;1.20;;;;;;;17.20;59.45;98903.75;4484651;31;20080;-72
2022/08/12 01:50:38;;;;;;;2.75;1.05;;;;;;;17.14;59.74;98896.50;4484771;31;20115;-72
2022/08/12 01:53:11;;;;;;;1.35;0.95;;;;;;;17.13;59.81;98889.56;4484866;31;20165;-72
2022/08/12 01:55:41;;;;;;;1.37;1.10;;;;;;;17.14;59.77;98889.38;4484793;31;20092;-72
2022/08/12 01:58:14;;;;;;;2.75;1.50;;;;;;;17.14;59.82;98889.38;4484565;31;20115;-72
2022/08/12 02:00:47;;;;;;;3.37;1.10;;;;;;;17.09;60.05;98881.13;4484911;31;20096;-72
2022/08/12 02:13:30;;;;;;;1.20;1.05;;;;;;;16.82;61.19;98875.34;4419978;32;20727;-72
2022/08/12 02:16:35;;;;;;;1.65;1.20;;;;;;;16.79;61.42;98875.69;4420101;32;20481;-72
2022/08/12 02:19:28;;;;;;;1.27;0.88;;;;;;;16.75;61.56;98871.72;4420052;32;20119;-72
2022/08/12 02:22:27;;;;;;;2.92;1.23;;;;;;;16.70;61.77;98863.50;4419723;32;20081;-72
2022/08/12 02:25:00;;;;;;;0.85;0.82;;;;;;;16.67;61.92;98859.38;4419870;32;20106;-72
2022/08/12 02:27:34;;;;;;;1.83;1.20;;;;;;;16.66;62.06;98859.56;4420143;32;20545;-71
2022/08/12 02:30:02;;;;;;;1.58;1.08;;;;;;;16.61;62.21;98856.63;4407245;32;20094;-71
2022/08/12 02:32:38;;;;;;;1.92;1.17;;;;;;;16.61;62.25;98861.91;4419686;32;20408;-72
2022/08/12 02:35:13;;;;;;;1.52;1.15;;;;;;;16.58;62.34;98862.22;4419414;32;20102;-72
2022/08/12 02:37:42;;;;;;;1.23;1.12;;;;;;;16.58;62.39;98856.94;4420153;32;20133;-71
2022/08/12 02:40:11;;;;;;;1.42;1.20;;;;;;;16.54;62.59;98864.41;4421560;32;20233;-72
2022/08/12 02:42:49;;;;;;;1.92;1.08;;;;;;;16.53;62.66;98859.28;4421718;32;20090;-72
2022/08/12 02:45:21;;;;;;;1.48;1.27;;;;;;;16.46;62.86;98865.28;4421513;32;20502;-71
2022/08/12 02:47:49;;;;;;;2.10;1.20;;;;;;;16.44;62.98;98851.41;4484940;32;20108;-72
2022/08/12 02:50:30;;;;;;;1.08;0.98;;;;;;;16.40;63.18;98849.28;4485052;32;20370;-72
2022/08/12 02:52:58;;;;;;;3.83;1.15;;;;;;;16.39;63.28;98847.63;4486148;31;20379;-71
2022/08/12 02:55:26;;;;;;;1.45;1.00;;;;;;;16.32;63.52;98848.31;4484919;32;20157;-72
2022/08/12 02:58:06;;;;;;;1.90;1.20;;;;;;;16.31;63.54;98851.13;4485212;32;20128;-72
2022/08/12 03:00:39;;;;;;;2.55;1.20;;;;;;;16.30;63.59;98852.13;4486193;31;20068;-72
2022/08/12 03:03:09;;;;;;;1.77;1.20;;;;;;;16.20;64.03;98847.06;4485922;31;20473;-72
2022/08/12 03:05:43;;;;;;;1.45;1.23;;;;;;;16.24;63.92;98840.41;4485577;31;20532;-71
2022/08/12 03:08:12;;;;;;;1.35;1.15;;;;;;;16.23;63.93;98845.88;4485845;31;20096;-71
2022/08/12 03:11:04;;;;;;;1.25;1.10;;;;;;;16.25;63.86;98841.25;4484995;32;20107;-72
2022/08/12 03:13:41;;;;;;;2.62;1.42;;;;;;;16.26;63.97;98840.22;4485961;31;20454;-71
2022/08/12 03:16:09;;;;;;;4.07;1.40;;;;;;;16.25;63.96;98835.97;4486095;31;20139;-72
2022/08/12 03:18:36;;;;;;;2.58;1.23;;;;;;;16.19;64.15;98840.09;4484910;32;20112;-72
2022/08/12 03:21:04;;;;;;;3.00;1.15;;;;;;;16.14;64.28;98837.97;4486048;31;20116;-72
2022/08/12 03:23:31;;;;;;;4.82;1.20;;;;;;;16.09;64.51;98837.69;4485646;31;20092;-72
2022/08/12 03:26:00;;;;;;;1.70;1.30;;;;;;;16.10;64.56;98839.31;4485971;31;20089;-72
2022/08/12 03:28:49;;;;;;;1.73;1.33;;;;;;;16.05;64.84;98835.53;4485995;31;20128;-72
2022/08/12 03:31:31;;;;;;;1.85;1.30;;;;;;;16.05;64.78;98840.81;4486201;31;20156;-72
2022/08/12 03:34:07;;;;;;;2.28;1.65;;;;;;;16.01;64.99;98844.81;4485996;31;20100;-72
2022/08/12 03:36:36;;;;;;;3.33;1.70;;;;;;;16.00;65.04;98843.97;4485629;31;20153;-72
2022/08/12 03:41:57;;;;;;;4.20;1.42;;;;;;;16.02;65.01;98838.50;4485926;31;20233;-71
2022/08/12 04:01:28;;;;;;;2.28;1.62;;;;;;;16.11;64.78;98850.72;4484762;32;20123;-72
2022/08/12 04:03:56;;;;;;;5.78;1.60;;;;;;;16.08;64.90;98849.25;4484209;32;20109;-72
2022/08/12 04:06:27;;;;;;;3.95;1.40;;;;;;;16.12;64.77;98849.72;4485303;31;20096;-72
2022/08/12 04:09:04;;;;;;;3.53;1.30;;;;;;;16.10;64.78;98849.06;4485644;31;20089;-72
2022/08/12 04:14:30;;;;;;;3.45;1.23;;;;;;;16.11;64.87;98856.00;4485600;32;20080;-72
2022/08/12 04:16:57;;;;;;;1.12;0.98;;;;;;;16.10;65.00;98857.81;4485596;31;20100;-72
2022/08/12 04:19:26;;;;;;;1.85;1.25;;;;;;;16.07;65.00;98858.16;4484271;32;20085;-72
2022/08/12 04:21:54;;;;;;;2.12;1.50;;;;;;;16.11;64.99;98859.47;4485689;31;20127;-72
2022/08/12 04:24:33;;;;;;;3.45;1.37;;;;;;;16.19;64.79;98863.09;4485443;31;20100;-71
2022/08/12 04:27:07;;;;;;;3.95;1.65;;;;;;;16.24;64.49;98866.03;4485508;31;20084;-72
2022/08/12 04:29:36;;;;;;;1.45;1.10;;;;;;;16.28;64.47;98868.16;4485402;31;20133;-72
2022/08/12 04:32:24;;;;;;;2.70;1.35;;;;;;;16.28;64.48;98873.44;4484978;31;20111;-72
2022/08/12 04:34:51;;;;;;;1.35;1.17;;;;;;;16.44;64.18;98882.28;4484973;31;20509;-72
2022/08/12 04:37:19;;;;;;;3.42;1.58;;;;;;;16.57;63.63;98879.09;4477197;31;20089;-72
2022/08/12 04:39:47;;;;;;;1.77;1.50;;;;;;;16.73;63.28;98876.38;4469361;32;20438;-72
2022/08/12 04:42:15;;;;;;;1.55;1.17;;;;;;;16.88;62.71;98880.94;4468434;32;20101;-71
2022/08/12 04:44:43;;;;;;;1.35;1.20;;;;;;;17.00;62.21;98880.37;4469130;32;20155;-72
2022/08/12 04:47:15;;;;;;;3.78;1.25;;;;;;;17.13;61.62;98886.91;4469462;32;20105;-72
2022/08/12 04:49:45;;;;;;;3.17;1.35;;;;;;;17.34;61.15;98888.91;4469316;32;20115;-72
2022/08/12 04:52:13;;;;;;;4.12;1.30;;;;;;;17.30;60.76;98903.50;4469616;32;20123;-72
2022/08/12 04:54:40;;;;;;;1.95;1.73;;;;;;;17.46;60.71;98897.25;4468476;32;20153;-72
2022/08/12 04:57:08;;;;;;;2.15;1.67;;;;;;;17.55;60.38;98897.00;4469504;32;20097;-72
2022/08/12 04:59:36;;;;;;;3.65;1.30;;;;;;;17.77;59.71;98894.47;4469305;32;20092;-72
2022/08/12 05:02:18;;;;;;;1.20;1.05;;;;;;;17.93;59.16;98898.03;4469241;32;20110;-72
2022/08/12 05:04:55;;;;;;;6.75;1.45;;;;;;;18.09;58.38;98903.97;4452811;32;20081;-72
2022/08/12 05:07:27;;;;;;;1.33;1.23;;;;;;;18.21;58.12;98899.03;4472581;32;20227;-72
2022/08/12 05:09:54;;;;;;;4.35;1.48;;;;;;;18.43;57.97;98901.75;4468922;31;20112;-72
2022/08/12 05:12:38;;;;;;;3.83;1.52;;;;;;;18.54;57.39;98900.47;4477048;32;20482;-72
2022/08/12 05:15:06;;;;;;;3.22;1.40;;;;;;;18.69;57.15;98897.78;4463167;32;20085;-72
2022/08/12 05:17:54;;;;;;;6.53;1.40;;;;;;;18.88;56.89;98902.53;4481863;32;20120;-72
2022/08/12 05:20:24;;;;;;;5.03;1.65;;;;;;;18.90;56.20;98899.69;4483950;32;20093;-72
2022/08/12 05:23:04;;;;;;;2.62;1.65;;;;;;;19.02;56.11;98903.50;4484163;31;20159;-72
2022/08/12 05:25:41;;;;;;;2.37;1.30;;;;;;;19.21;55.69;98902.03;4477301;32;20080;-72
2022/08/12 05:28:11;;;;;;;1.80;1.23;;;;;;;19.47;54.88;98908.59;4477166;31;20112;-72
2022/08/12 05:30:41;;;;;;;5.15;1.50;;;;;;;19.61;53.85;98907.72;4483546;31;20096;-72
2022/08/12 05:33:09;;;;;;;1.70;1.30;;;;;;;19.72;53.25;98910.84;4485013;31;20084;-72
2022/08/12 05:35:39;;;;;;;7.55;1.50;;;;;;;19.83;53.00;98905.03;4479035;31;20080;-72
2022/08/12 05:40:59;;;;;;;5.85;2.03;;;;;;;19.95;52.95;98903.47;4473105;32;20077;-71
2022/08/12 05:43:27;;;;;;;7.87;1.55;;;;;;;19.87;53.19;98910.78;4480259;32;20100;-72
2022/08/12 05:45:55;;;;;;;3.80;1.25;;;;;;;20.07;52.64;98901.09;4469955;32;20119;-72
2022/08/12 05:48:22;;;;;;;3.80;1.60;;;;;;;20.21;52.69;98907.31;4476895;32;20097;-72
2022/08/12 05:50:51;;;;;;;14.23;2.05;;;;;;;20.37;51.84;98901.66;4468952;32;20105;-72
2022/08/12 05:53:18;;;;;;;8.82;1.30;;;;;;;20.44;51.70;98906.19;4468883;32;20119;-72
2022/08/12 05:55:45;;;;;;;5.47;1.70;;;;;;;20.45;51.70;98903.34;4478194;31;20560;-72
2022/08/12 05:58:13;;;;;;;19.35;2.83;;;;;;;20.53;51.37;98905.84;4484292;32;20092;-72
2022/08/12 06:00:41;;;;;;;6.68;1.70;;;;;;;20.60;50.89;98908.53;4484206;31;20084;-72
2022/08/12 06:03:08;;;;;;;6.68;1.83;;;;;;;20.65;50.88;98907.94;4474733;31;20095;-72
2022/08/12 06:05:37;;;;;;;2.95;1.48;;;;;;;20.61;50.99;98904.84;4479163;32;20114;-72
2022/08/12 06:08:23;;;;;;;3.00;1.33;;;;;;;20.64;50.99;98906.31;4483271;31;20076;-72
2022/08/12 06:10:50;;;;;;;7.70;1.62;;;;;;;20.91;50.32;98910.72;4471519;31;20089;-72
2022/08/12 06:13:18;;;;;;;2.17;1.52;;;;;;;21.11;50.15;98917.13;4469430;32;20501;-72
2022/08/12 06:16:06;;;;;;;4.50;1.80;;;;;;;20.98;49.82;98916.06;4472336;32;20466;-72
2022/08/12 06:18:34;;;;;;;6.70;1.48;;;;;;;21.05;49.71;98910.75;4472186;32;20084;-72
2022/08/12 06:21:01;;;;;;;8.45;2.95;;;;;;;21.18;49.32;98912.63;4481091;32;20132;-72
2022/08/12 06:23:28;;;;;;;2.62;1.83;;;;;;;21.00;48.85;98916.69;4485547;31;20087;-72
2022/08/12 06:25:57;;;;;;;2.35;1.73;;;;;;;21.07;49.16;98914.88;4481761;31;20097;-71
2022/08/12 06:28:25;;;;;;;5.72;1.75;;;;;;;21.28;48.64;98910.37;4485245;31;20114;-72
2022/08/12 06:30:52;;;;;;;2.33;1.75;;;;;;;21.40;48.28;98921.25;4481466;32;20116;-71
2022/08/12 06:33:43;;;;;;;5.97;1.80;;;;;;;21.32;48.47;98919.63;4486094;31;20633;-72
2022/08/12 06:36:27;;;;;;;2.70;2.30;;;;;;;21.36;48.36;98915.53;4484932;31;20473;-72
2022/08/12 06:38:59;;;;;;;4.95;1.70;;;;;;;21.41;47.75;98926.37;4485879;31;20093;-72
2022/08/12 06:44:33;;;;;;;3.20;1.85;;;;;;;21.56;47.69;98920.91;4486060;32;20611;-72
2022/08/12 06:47:00;;;;;;;9.73;1.87;;;;;;;21.61;47.79;98917.63;4478585;32;20097;-72
2022/08/12 06:49:32;;;;;;;9.23;2.05;;;;;;;21.57;47.67;98914.53;4482854;32;20107;-72
2022/08/12 06:51:59;;;;;;;7.60;2.15;;;;;;;21.73;47.06;98923.16;4482512;32;20093;-71
2022/08/12 06:54:26;;;;;;;6.80;2.10;;;;;;;21.50;47.55;98920.88;4485580;32;20564;-71
2022/08/12 06:56:59;;;;;;;4.25;1.90;;;;;;;21.69;47.81;98919.25;4485699;31;20172;-71
2022/08/12 06:59:34;;;;;;;2.95;1.83;;;;;;;21.71;47.37;98918.03;4482366;31;20153;-72
2022/08/12 07:02:01;;;;;;;4.45;2.10;;;;;;;21.68;47.41;98923.78;4483312;31;20507;-72
2022/08/12 07:04:28;;;;;;;2.67;1.70;;;;;;;21.80;47.60;98922.12;4476141;31;20131;-72
2022/08/12 07:07:08;;;;;;;5.12;1.83;;;;;;;21.78;47.18;98920.69;4481426;32;20096;-72
2022/08/12 07:09:41;;;;;;;4.40;2.15;;;;;;;21.93;47.19;98921.28;4480994;31;20077;-72
2022/08/12 07:12:29;;;;;;;3.62;2.05;;;;;;;22.06;46.84;98920.44;4477098;31;20097;-72
2022/08/12 07:14:58;;;;;;;1.73;1.62;;;;;;;22.14;46.71;98909.53;4483376;31;20088;-72
2022/08/12 07:17:34;;;;;;;2.85;1.70;;;;;;;22.21;46.59;98909.53;4482230;32;20577;-72
2022/08/12 07:20:04;;;;;;;3.75;1.73;;;;;;;22.33;46.30;98912.41;4468714;32;20098;-72
2022/08/12 07:22:32;;;;;;;2.25;1.90;;;;;;;22.39;46.31;98914.25;4480676;32;20096;-72
2022/08/12 07:27:45;;;;;;;5.90;2.08;;;;;;;22.48;46.06;98921.00;4469159;32;20088;-72
2022/08/12 07:30:13;;;;;;;4.32;1.80;;;;;;;22.76;45.98;98919.03;4467788;32;20459;-72
2022/08/12 07:32:40;;;;;;;3.78;1.62;;;;;;;22.89;45.12;98920.81;4478202;32;20161;-72
2022/08/12 07:35:08;;;;;;;2.58;1.87;;;;;;;22.90;44.95;98923.25;4470694;32;20122;-71
2022/08/12 07:37:40;;;;;;;3.72;2.00;;;;;;;22.97;44.88;98924.06;4470721;32;20096;-71
2022/08/12 07:40:11;;;;;;;8.98;2.67;;;;;;;22.89;45.33;98918.13;4472960;32;20459;-71
2022/08/12 07:42:40;;;;;;;7.20;2.25;;;;;;;23.01;45.28;98927.09;4474062;32;20595;-72
2022/08/12 07:45:08;;;;;;;4.12;1.73;;;;;;;23.03;45.74;98925.87;4479406;32;20111;-72
2022/08/12 07:47:36;;;;;;;2.15;1.70;;;;;;;23.23;44.68;98918.81;4480912;31;20126;-72
2022/08/12 07:50:07;;;;;;;3.37;1.83;;;;;;;23.32;44.21;98922.84;4476912;32;20161;-72
2022/08/12 07:52:37;;;;;;;5.37;1.80;;;;;;;23.34;45.11;98915.44;4483427;31;20123;-72
2022/08/12 07:55:05;;;;;;;4.95;2.30;;;;;;;23.41;43.96;98916.19;4482861;31;20119;-72
2022/08/12 07:57:34;;;;;;;4.72;2.25;;;;;;;23.47;44.28;98926.03;4476635;31;20485;-72
2022/08/12 08:00:04;;;;;;;2.62;1.60;;;;;;;23.54;43.41;98921.47;4474906;32;20084;-72
2022/08/12 08:02:34;;;;;;;6.90;2.00;;;;;;;23.56;44.23;98915.88;4479740;32;20532;-71
2022/08/12 08:05:03;;;;;;;4.85;2.10;;;;;;;23.58;44.06;98919.16;4480758;32;20126;-71
2022/08/12 08:07:30;;;;;;;3.90;2.00;;;;;;;23.72;44.00;98918.03;4482933;31;20115;-71
2022/08/12 08:10:01;;;;;;;6.20;1.92;;;;;;;23.66;43.62;98921.53;4482376;31;20096;-72
2022/08/12 08:15:15;;;;;;;5.55;1.92;;;;;;;24.01;43.56;98914.88;4480945;32;20135;-72
2022/08/12 08:18:07;;;;;;;6.97;2.28;;;;;;;24.05;43.37;98914.22;4482426;31;20109;-72
2022/08/12 08:20:43;;;;;;;2.92;1.90;;;;;;;24.26;42.74;98928.22;4480911;32;20118;-72
2022/08/12 08:23:16;;;;;;;5.32;2.20;;;;;;;24.39;42.20;98921.91;4473493;32;20438;-72
2022/08/12 08:25:44;;;;;;;2.72;2.00;;;;;;;24.37;42.59;98918.63;4474431;32;20141;-72
2022/08/12 08:28:13;;;;;;;2.28;1.90;;;;;;;24.47;41.45;98918.94;4470130;32;20611;-72
2022/08/12 08:30:42;;;;;;;2.83;2.05;;;;;;;24.25;42.00;98916.72;4472943;31;20105;-72
2022/08/12 08:33:11;;;;;;;3.17;2.00;;;;;;;24.48;42.01;98909.03;4472383;32;20172;-72
2022/08/12 08:35:59;;;;;;;4.97;2.22;;;;;;;24.58;42.43;98912.03;4468397;32;20092;-72
2022/08/12 08:38:28;;;;;;;2.90;2.10;;;;;;;24.53;41.55;98918.03;4484386;32;20104;-72
2022/08/12 08:44:10;;;;;;;5.10;2.20;;;;;;;24.77;40.68;98919.00;4479925;31;20119;-73
2022/08/12 08:46:39;;;;;;;25.70;2.90;;;;;;;24.79;41.09;98921.47;4470221;32;20127;-72
2022/08/12 08:49:07;;;;;;;6.30;2.70;;;;;;;24.88;40.69;98914.75;4484634;32;20386;-73
2022/08/12 08:51:34;;;;;;;5.53;2.47;;;;;;;24.89;40.03;98920.91;4484975;31;20099;-73
2022/08/12 08:54:02;;;;;;;4.18;2.37;;;;;;;25.07;40.89;98918.19;4483951;32;20096;-73
2022/08/12 08:56:29;;;;;;;4.30;2.08;;;;;;;25.20;39.71;98919.84;4484461;31;20454;-72
2022/08/12 08:58:56;;;;;;;8.25;2.20;;;;;;;25.34;40.46;98920.50;4485153;31;20541;-72
2022/08/12 09:01:25;;;;;;;4.55;2.20;;;;;;;25.37;39.60;98913.88;4485103;31;20104;-72
2022/08/12 09:04:04;;;;;;;4.12;2.35;;;;;;;25.38;39.46;98904.78;4479721;31;20089;-72
2022/08/12 09:06:56;;;;;;;4.37;2.08;;;;;;;25.46;39.28;98904.44;4480995;32;20597;-72
2022/08/12 09:09:23;;;;;;;2.70;2.25;;;;;;;25.47;38.74;98906.06;4480754;31;20115;-72
2022/08/12 09:14:58;;;;;;;4.57;2.42;;;;;;;25.52;38.86;98902.69;4472597;31;20406;-73
2022/08/12 09:17:26;;;;;;;5.53;2.17;;;;;;;25.68;38.50;98913.56;4466067;32;219981;-72
2022/08/12 09:20:14;;;;;;;2.55;1.95;;;;;;;25.43;39.25;98910.25;4484251;31;20433;-72
2022/08/12 09:22:43;;;;;;;4.12;2.15;;;;;;;25.31;38.96;98907.56;4483761;31;20080;-72
2022/08/12 09:25:30;;;;;;;4.22;2.47;;;;;;;25.66;38.55;98898.72;4478192;31;20546;-72
2022/08/12 09:28:19;;;;;;;3.72;2.55;;;;;;;26.07;38.21;98901.56;4470042;32;20097;-72
2022/08/12 09:30:58;;;;;;;5.95;2.50;;;;;;;26.12;37.26;98901.69;4467730;32;20111;-72
2022/08/12 09:33:32;;;;;;;4.35;2.35;;;;;;;25.77;37.80;98899.78;4481719;32;20080;-72
2022/08/12 09:36:20;;;;;;;3.75;2.15;;;;;;;25.78;37.53;98890.69;4484312;31;20099;-73
2022/08/12 09:39:08;;;;;;;4.00;2.75;;;;;;;26.14;37.22;98886.16;4484781;31;20084;-73
2022/08/12 09:45:21;;;;;;;4.03;3.33;;;;;;;26.52;36.11;98880.19;4469171;32;20088;-72
2022/08/12 09:47:51;;;;;;;4.62;2.67;;;;;;;26.87;37.33;98875.78;4469210;32;20085;-72
2022/08/12 09:50:26;;;;;;;5.87;2.45;;;;;;;27.13;35.03;98862.78;4469032;32;20141;-72
2022/08/12 09:53:07;;;;;;;6.45;2.97;;;;;;;27.16;35.50;98870.38;4473027;32;20204;-73
2022/08/12 09:55:46;;;;;;;13.65;3.60;;;;;;;27.02;34.85;98867.97;4484741;31;20072;-72
2022/08/12 09:58:36;;;;;;;5.40;2.60;;;;;;;27.13;33.73;98863.59;4484855;31;20613;-72
2022/08/12 10:01:23;;;;;;;4.57;2.40;;;;;;;27.02;33.77;98873.34;4483044;32;20122;-72
2022/08/12 10:04:02;;;;;;;4.93;2.00;;;;;;;27.38;33.62;98874.00;4484485;31;20140;-73
2022/08/12 10:06:31;;;;;;;4.03;2.12;;;;;;;27.52;33.78;98874.47;4484016;31;20101;-72
2022/08/12 10:09:06;;;;;;;2.80;2.03;;;;;;;27.19;33.93;98870.72;4484144;31;20101;-72
2022/08/12 10:14:43;;;;;;;6.62;1.83;;;;;;;27.33;33.30;98865.84;4475076;32;20085;-72
2022/08/12 10:17:20;;;;;;;7.03;2.00;;;;;;;27.21;33.52;98863.22;4479216;32;20115;-72
2022/08/12 10:19:50;;;;;;;6.65;1.90;;;;;;;27.69;33.62;98860.19;4484159;31;20119;-73
2022/08/12 10:22:19;;;;;;;5.93;1.70;;;;;;;27.79;32.71;98861.16;4481579;32;20139;-72
2022/08/12 10:31:01;;;;;;;5.93;2.15;;;;;;;26.76;35.24;98855.97;4482653;32;20456;-72
2022/08/12 10:33:33;;;;;;;4.95;1.90;;;;;;;26.81;34.84;98849.87;4482839;31;20179;-73
2022/08/12 10:36:21;;;;;;;5.37;2.10;;;;;;;27.21;33.83;98838.19;4469190;32;20195;-72
2022/08/12 10:39:11;;;;;;;8.80;2.08;;;;;;;27.08;34.43;98850.87;4482051;31;20391;-72
2022/08/12 10:44:59;;;;;;;4.45;1.55;;;;;;;27.54;33.76;98841.94;4482368;31;20084;-73
2022/08/12 10:47:27;;;;;;;2.10;1.70;;;;;;;27.41;33.86;98843.09;4482868;31;20080;-73
2022/08/12 10:50:14;;;;;;;10.50;2.30;;;;;;;27.26;33.71;98836.38;4482814;31;20107;-72
2022/08/12 10:53:05;;;;;;;7.47;2.17;;;;;;;27.61;34.05;98846.09;4483114;31;20081;-73
2022/08/12 10:55:35;;;;;;;2.22;1.85;;;;;;;28.16;33.46;98835.53;4483517;31;20088;-72
2022/08/12 10:58:03;;;;;;;3.72;2.03;;;;;;;28.19;33.15;98837.75;4483793;32;20107;-72
2022/08/12 11:00:50;;;;;;;7.10;2.17;;;;;;;28.69;32.41;98830.47;4486435;32;20344;-73
2022/08/12 11:03:38;;;;;;;2.10;1.87;;;;;;;28.15;32.89;98826.66;4486194;31;20154;-73
2022/08/12 11:06:25;;;;;;;5.30;2.12;;;;;;;28.20;32.67;98823.19;4485151;31;20088;-73
2022/08/12 11:09:23;;;;;;;2.70;1.90;;;;;;;28.44;32.34;98834.50;4483835;32;20478;-72
2022/08/12 11:12:10;;;;;;;4.87;2.25;;;;;;;27.97;33.11;98835.84;4486011;31;20613;-73
2022/08/12 11:14:58;;;;;;;3.22;1.83;;;;;;;28.01;33.16;98829.97;4485987;31;20085;-73
2022/08/12 11:17:25;;;;;;;3.20;1.87;;;;;;;28.17;32.84;98828.28;4485915;31;20088;-73
2022/08/12 11:20:12;;;;;;;4.37;2.50;;;;;;;27.70;33.02;98821.44;4485512;31;20466;-71
2022/08/12 11:22:41;;;;;;;2.45;1.90;;;;;;;27.55;33.45;98822.03;4485342;31;20152;-73
2022/08/12 11:25:24;;;;;;;2.17;1.70;;;;;;;27.95;33.93;98821.00;4485411;32;20143;-73
2022/08/12 11:28:12;;;;;;;2.72;1.80;;;;;;;28.72;31.27;98813.81;4485788;31;20093;-72
2022/08/12 11:30:41;;;;;;;4.03;1.70;;;;;;;29.16;30.68;98815.53;4485589;31;20088;-72
2022/08/12 11:33:08;;;;;;;7.35;2.22;;;;;;;29.86;29.93;98808.22;4485836;31;20093;-72
2022/08/12 11:35:40;;;;;;;2.47;2.25;;;;;;;29.90;29.75;98812.00;4481462;31;20120;-74
2022/08/12 11:38:09;;;;;;;6.47;1.77;;;;;;;29.50;30.67;98813.38;4483024;31;20096;-74
2022/08/12 11:40:36;;;;;;;2.58;1.95;;;;;;;28.66;31.43;98806.72;4485452;31;20447;-74
2022/08/12 11:43:08;;;;;;;4.70;1.80;;;;;;;28.43;31.53;98805.13;4485583;31;20107;-73
2022/08/12 11:45:46;;;;;;;2.85;1.80;;;;;;;28.32;32.21;98804.22;4485572;31;20111;-73
2022/08/12 11:48:23;;;;;;;7.47;1.90;;;;;;;28.19;31.61;98802.72;4485350;31;20097;-73
2022/08/12 11:50:54;;;;;;;2.45;1.30;;;;;;;28.10;31.84;98801.53;4485513;31;20163;-73
2022/08/12 11:53:21;;;;;;;1.42;1.33;;;;;;;27.93;32.18;98806.94;4485547;31;20153;-72
2022/08/12 11:56:08;;;;;;;32.83;3.15;;;;;;;27.95;30.91;98805.63;4485781;31;20142;-72
2022/08/12 11:58:37;;;;;;;10.75;1.70;;;;;;;27.80;30.18;98803.56;4485557;31;20438;-72
2022/08/12 12:01:24;;;;;;;4.25;1.62;;;;;;;28.09;29.93;98795.31;4485592;31;20803;-73
2022/08/12 12:04:12;;;;;;;1.90;1.25;;;;;;;28.59;29.82;98798.84;4485463;31;20080;-73
2022/08/12 12:06:56;;;;;;;1.62;1.30;;;;;;;28.62;29.36;98802.94;4484953;31;20446;-73
2022/08/12 12:09:35;;;;;;;2.55;1.40;;;;;;;28.30;30.81;98800.97;4483728;32;20093;-71
2022/08/12 12:12:21;;;;;;;2.25;1.60;;;;;;;28.29;31.28;98807.41;4485486;32;20118;-73
2022/08/12 12:14:49;;;;;;;1.67;1.45;;;;;;;28.63;31.63;98801.84;4485448;31;20141;-73
2022/08/12 12:17:25;;;;;;;4.62;1.60;;;;;;;28.88;30.83;98801.28;4484096;32;20111;-74
2022/08/12 12:20:08;;;;;;;4.47;1.62;;;;;;;29.00;31.41;98801.12;4485735;31;20188;-73
2022/08/12 12:22:36;;;;;;;1.77;1.45;;;;;;;28.66;31.77;98804.03;4484895;31;20171;-74
2022/08/12 12:25:04;;;;;;;13.98;2.00;;;;;;;28.35;32.27;98801.00;4485132;32;20176;-74
2022/08/12 12:27:53;;;;;;;4.50;1.75;;;;;;;28.24;32.64;98796.59;4485100;31;20092;-74
2022/08/12 12:30:32;;;;;;;3.58;1.52;;;;;;;28.61;32.08;98791.31;4485179;31;20123;-73
2022/08/12 12:32:59;;;;;;;5.50;1.77;;;;;;;29.03;32.13;98789.81;4485423;32;20482;-73
2022/08/12 12:35:26;;;;;;;3.65;1.50;;;;;;;29.32;31.39;98800.31;4484960;31;20088;-73
2022/08/12 12:38:15;;;;;;;3.80;1.62;;;;;;;29.17;31.49;98793.69;4485155;32;20163;-74
2022/08/12 12:40:45;;;;;;;4.45;1.70;;;;;;;29.36;31.22;98790.63;4485366;31;20161;-74
2022/08/12 12:43:17;;;;;;;2.75;1.50;;;;;;;29.14;31.31;98788.00;4485229;32;20111;-73
2022/08/12 12:46:04;;;;;;;1.70;1.42;;;;;;;28.71;32.14;98785.22;4485029;31;20065;-73
2022/08/12 12:48:31;;;;;;;2.00;1.62;;;;;;;28.34;32.88;98777.81;4485323;31;20115;-74
2022/08/12 12:51:15;;;;;;;7.00;1.60;;;;;;;28.31;33.10;98771.06;4484173;32;21027;-74
2022/08/12 12:54:03;;;;;;;3.70;1.50;;;;;;;29.02;32.04;98769.28;4485342;31;20152;-74
2022/08/12 12:56:46;;;;;;;2.37;1.57;;;;;;;29.99;32.06;98760.19;4485216;32;20747;-73
2022/08/12 12:59:17;;;;;;;2.80;1.77;;;;;;;30.19;29.84;98762.12;4485174;32;20084;-72
2022/08/12 13:02:05;;;;;;;6.60;1.65;;;;;;;29.79;29.99;98756.28;4485344;31;20108;-74
2022/08/12 13:04:35;;;;;;;2.17;1.20;;;;;;;30.12;28.07;98759.69;4484835;31;20541;-73
2022/08/12 13:07:05;;;;;;;5.97;1.80;;;;;;;30.39;27.41;98747.84;4484752;32;20089;-74
2022/08/12 13:09:33;;;;;;;4.05;1.60;;;;;;;30.60;29.18;98749.53;4484885;31;20115;-74
2022/08/12 13:12:07;;;;;;;8.93;2.00;;;;;;;30.24;30.04;98762.16;4485665;32;20640;-74
2022/08/12 13:14:36;;;;;;;2.85;1.60;;;;;;;30.46;30.40;98748.41;4485233;31;20111;-73
2022/08/12 13:17:10;;;;;;;4.35;1.85;;;;;;;30.92;28.12;98750.34;4485223;32;20100;-73
2022/08/12 13:19:41;;;;;;;3.87;1.60;;;;;;;30.57;29.02;98741.97;4485165;31;20088;-74
2022/08/12 13:22:19;;;;;;;3.20;1.95;;;;;;;30.75;28.25;98740.62;4484456;31;20519;-72
2022/08/12 13:24:51;;;;;;;6.37;1.80;;;;;;;31.02;26.23;98746.84;4485001;31;20116;-73
2022/08/12 13:27:29;;;;;;;4.28;1.60;;;;;;;31.12;26.19;98736.81;4484779;31;20107;-72
2022/08/12 13:30:08;;;;;;;1.95;1.65;;;;;;;31.25;25.27;98740.88;4485106;31;20111;-72
2022/08/12 13:32:57;;;;;;;7.03;1.50;;;;;;;31.15;26.02;98735.47;4485331;31;20088;-72
2022/08/12 13:35:26;;;;;;;2.75;1.42;;;;;;;31.07;25.35;98734.13;4484445;31;20088;-72
2022/08/12 13:38:00;;;;;;;27.05;2.42;;;;;;;30.93;25.90;98736.56;4485046;31;20149;-73
2022/08/12 13:40:31;;;;;;;4.50;1.83;;;;;;;30.67;26.57;98730.31;4484851;31;20204;-72
2022/08/12 13:43:00;;;;;;;9.77;2.10;;;;;;;30.13;26.94;98731.59;4485217;31;20088;-72
2022/08/12 13:45:30;;;;;;;4.97;1.77;;;;;;;29.79;27.57;98739.28;4485026;32;20463;-72
2022/08/12 13:48:02;;;;;;;3.53;1.52;;;;;;;29.26;28.09;98736.59;4484667;31;20105;-72
2022/08/12 13:50:32;;;;;;;4.65;1.67;;;;;;;29.27;27.64;98735.53;4484871;32;20088;-72
2022/08/12 13:53:00;;;;;;;2.47;1.48;;;;;;;29.29;27.77;98734.16;4484779;31;20168;-71
2022/08/12 13:55:50;;;;;;;5.03;1.65;;;;;;;29.63;28.32;98722.19;4484799;31;20084;-70
2022/08/12 13:58:29;;;;;;;2.95;1.77;;;;;;;30.07;28.23;98719.94;4484600;31;20435;-70
2022/08/12 14:00:57;;;;;;;5.35;1.90;;;;;;;30.44;28.12;98718.16;4484769;31;20097;-70
2022/08/12 14:03:25;;;;;;;21.00;2.10;;;;;;;30.74;28.30;98711.13;4484692;31;20100;-70
2022/08/12 14:05:58;;;;;;;5.43;1.67;;;;;;;31.41;26.84;98722.66;4484402;32;20118;-70